AirNav   Pilot Hours Calculator
 
 1228 users online  

67MN Pagel's Field Airport
Atwater, Minnesota, USA

GOING TO ATWATER?


FAA INFORMATION EFFECTIVE 01 DECEMBER 2022

Location

FAA Identifier: 67MN
Lat/Long: 45-12-06.8680N 094-48-04.0100W
45-12.114467N 094-48.066833W
45.2019078,-94.8011139
(estimated)
Elevation: 1170 ft. / 357 m (estimated)
Variation: 04E (1985)
From city: 3 miles NW of ATWATER, MN
Time zone: UTC -6 (UTC -5 during Daylight Saving Time)
Zip code: 56209

Airport Operations

Airport use: Private use, PERSONAL USE.
Activation date: 03/1979
Control tower: no
ARTCC: MINNEAPOLIS CENTER
FSS: PRINCETON FLIGHT SERVICE STATION
Attendance: UNATNDD
Wind indicator: yes
Segmented circle: no

Airport Communications

WX AWOS-3PT at PEX (10 nm N): 120.35 (320-243-4538)
WX AWOS-3 at LJF (14 nm SE): 119.65 (320-693-6456)
WX AWOS-3 at BDH (15 nm W): 113.7 (320-235-8287)

Nearby radio navigation aids

VOR radial/distance  VOR name  Freq  Var
BDHr066/14.7WILLMAR VOR/DME113.7004E
DWNr288/16.2DARWIN VORTAC109.0007E
STCr233/37.6ST CLOUD VOR/DME112.1003E

Airport Services

Runway Information

Runway NW/SE

Dimensions: 2700 x 90 ft. / 823 x 27 m
Surface: turf
RUNWAY NW  RUNWAY SE
Traffic pattern: leftleft

Airport Ownership and Management from official FAA records

Ownership: Privately-owned
Owner: JEFFREY H. PAGEL
17211 SPERRY LAKE RD
ATWATER, MN 56209
Phone 320-974-3390
Manager: JEFFREY H. PAGEL
17211 SPERRY LAKE RD
ATWATER, MN 56209
Phone 320-974-3390

Airport Operational Statistics

Aircraft based on the field: 1
Single engine airplanes: 1
    

Additional Remarks

FOR CD CTC MINNEAPOLIS ARTCC AT 651-463-5588.

Instrument Procedures

There are no published instrument procedures at 67MN.

Some nearby airports with instrument procedures:

KPEX - Paynesville Municipal Airport (10 nm N)
KLJF - Litchfield Municipal Airport (14 nm SE)
KBDH - Willmar Municipal Airport-John L Rice Field (15 nm W)
KHCD - Hutchinson Municipal Airport-Butler Field (27 nm SE)
KOVL - Olivia Regional Airport (27 nm S)
 
Loc | Ops | Rwys | IFR | FBO | Links
Com | Nav | Svcs | Stats | Notes
Area around 67MN (Pagel's Field Airport)
 
Road maps at: MapQuest Bing Google
 
Aerial photo
No photo
 
Sectional chart

 
Airport distance calculator
Flying to Pagel's Field Airport? Find the distance to fly.

From to 67MN

Sunrise and sunset
Times for 03-Dec-2022
 Local
(UTC-6)
 Zulu
(UTC)
Morning civil twilight07:0813:08
Sunrise07:4113:41
Sunset16:3722:37
Evening civil twilight17:1023:10

Current date and time
Zulu (UTC)  04-Dec-2022 02:36:37
Local (UTC-6)  03-Dec-2022 20:36:37
 
METAR
KPEX 
10nm N 
040215Z AUTO 18003KT 10SM CLR M11/M14 A3019 RMK AO2
KLJF 
14nm SE 
040215Z AUTO 00000KT 10SM CLR M12/M15 A3019 RMK AO2
KBDH 
15nm W 
040215Z AUTO 00000KT 10SM CLR M10/M13 A3022 RMK AO2
TAF
KSTC 
38nm NE 
032100Z 0321/0418 22011KT P6SM SKC FM040000 19006KT P6SM SKC FM040800 25007KT P6SM SKC
KRWF 
41nm S 
032117Z 0321/0418 18007KT P6SM SKC FM040600 25008KT P6SM SKC
KAXN 
47nm NW 
032116Z 0321/0418 20007KT P6SM SKC FM040500 23007KT P6SM SKC FM041200 26009KT P6SM SKC
NOTAMs
Click for the latest NOTAMs
NOTAMs are issued by the DoD/FAA and will open in a separate window not controlled by AirNav.

 

 
 

Would you like to see your business listed on this page?

 If your business provides an interesting product or service to pilots, flight crews, aircraft, or users of the Pagel's Field Airport, you should consider listing it here.  To start the listing process, click on the button below
 
Add a business
 

Other Pages about Pagel's Field Airport

Update a link
 
Copyright © AirNav, LLC. All rights reserved. Privacy Policy  Contact